Terminal Aerodrome Forecast
Issued by NWS

Home | Current Version | Previous Version | Text Only | Print | Product List | Glossary On
Versions: 1 2 3 4 5 6 7 8 9 10 11 12
000
FTUS45 KPIH 251700
TAFSUN
TAF
KSUN 251720Z 2518/2618 15010KT P6SM SCT070 SCT250
     FM252300 25015G25KT P6SM SCT080
     FM260300 31015KT P6SM SCT050 BKN110
     FM260800 30008KT P6SM -SHRA SCT025 BKN050 OVC100
     FM261200 VRB05KT P6SM -SHRA SCT015 OVC035=

USA.gov is the U.S. government's official web portal to all federal, state and local government web resources and services.